sensor_id;sensor_type;location;lat;lon;timestamp;temperature;humidity
62575;DHT22;70119;45.638;11.714;2023-08-06T00:00:40;30.40;47.80
62575;DHT22;70119;45.638;11.714;2023-08-06T00:03:06;30.40;47.80
62575;DHT22;70119;45.638;11.714;2023-08-06T00:05:32;30.40;47.80
62575;DHT22;70119;45.638;11.714;2023-08-06T00:07:58;30.40;47.80
62575;DHT22;70119;45.638;11.714;2023-08-06T00:10:24;30.40;47.80
62575;DHT22;70119;45.638;11.714;2023-08-06T00:12:50;30.40;47.80
62575;DHT22;70119;45.638;11.714;2023-08-06T00:15:16;30.40;47.80
62575;DHT22;70119;45.638;11.714;2023-08-06T00:17:42;30.40;47.80
62575;DHT22;70119;45.638;11.714;2023-08-06T00:20:08;30.40;47.80
62575;DHT22;70119;45.638;11.714;2023-08-06T00:22:35;30.40;47.80
62575;DHT22;70119;45.638;11.714;2023-08-06T00:25:02;30.40;47.90
62575;DHT22;70119;45.638;11.714;2023-08-06T00:27:28;30.40;47.90
62575;DHT22;70119;45.638;11.714;2023-08-06T00:29:54;30.30;47.90
62575;DHT22;70119;45.638;11.714;2023-08-06T00:32:20;30.30;47.90
62575;DHT22;70119;45.638;11.714;2023-08-06T00:34:46;30.30;47.90
62575;DHT22;70119;45.638;11.714;2023-08-06T00:37:12;30.40;48.00
62575;DHT22;70119;45.638;11.714;2023-08-06T00:39:38;30.30;48.00
62575;DHT22;70119;45.638;11.714;2023-08-06T00:42:04;30.30;47.90
62575;DHT22;70119;45.638;11.714;2023-08-06T00:44:30;30.30;47.90
62575;DHT22;70119;45.638;11.714;2023-08-06T00:46:56;30.40;47.90
62575;DHT22;70119;45.638;11.714;2023-08-06T00:49:22;30.40;47.90
62575;DHT22;70119;45.638;11.714;2023-08-06T00:51:48;30.40;47.90
62575;DHT22;70119;45.638;11.714;2023-08-06T00:54:15;30.40;47.90
62575;DHT22;70119;45.638;11.714;2023-08-06T00:56:41;30.40;47.90
62575;DHT22;70119;45.638;11.714;2023-08-06T00:59:08;30.30;47.90
62575;DHT22;70119;45.638;11.714;2023-08-06T01:01:34;30.40;47.90
62575;DHT22;70119;45.638;11.714;2023-08-06T01:04:01;30.40;47.90
62575;DHT22;70119;45.638;11.714;2023-08-06T01:09:35;30.30;48.00
62575;DHT22;70119;45.638;11.714;2023-08-06T01:12:22;30.30;48.00
62575;DHT22;70119;45.638;11.714;2023-08-06T01:15:17;30.30;48.00
62575;DHT22;70119;45.638;11.714;2023-08-06T01:17:40;30.30;48.00
62575;DHT22;70119;45.638;11.714;2023-08-06T01:20:07;30.30;48.00
62575;DHT22;70119;45.638;11.714;2023-08-06T01:22:33;30.30;48.00
62575;DHT22;70119;45.638;11.714;2023-08-06T01:24:59;30.30;48.00
62575;DHT22;70119;45.638;11.714;2023-08-06T01:27:33;30.30;48.00
62575;DHT22;70119;45.638;11.714;2023-08-06T01:32:40;30.30;48.00
62575;DHT22;70119;45.638;11.714;2023-08-06T01:35:10;30.30;48.00
62575;DHT22;70119;45.638;11.714;2023-08-06T01:37:37;30.20;48.00
62575;DHT22;70119;45.638;11.714;2023-08-06T01:40:10;30.30;48.10
62575;DHT22;70119;45.638;11.714;2023-08-06T01:42:37;30.30;48.10
62575;DHT22;70119;45.638;11.714;2023-08-06T01:45:03;30.20;48.10
62575;DHT22;70119;45.638;11.714;2023-08-06T01:47:29;30.20;48.10
62575;DHT22;70119;45.638;11.714;2023-08-06T01:49:55;30.20;48.10
62575;DHT22;70119;45.638;11.714;2023-08-06T01:52:21;30.20;48.10
62575;DHT22;70119;45.638;11.714;2023-08-06T01:54:47;30.20;48.10
62575;DHT22;70119;45.638;11.714;2023-08-06T01:57:13;30.20;48.10
62575;DHT22;70119;45.638;11.714;2023-08-06T01:59:39;30.20;48.10
62575;DHT22;70119;45.638;11.714;2023-08-06T02:02:05;30.20;48.20
62575;DHT22;70119;45.638;11.714;2023-08-06T02:04:31;30.20;48.10
62575;DHT22;70119;45.638;11.714;2023-08-06T02:06:56;30.20;48.10
62575;DHT22;70119;45.638;11.714;2023-08-06T02:09:22;30.20;48.10
62575;DHT22;70119;45.638;11.714;2023-08-06T02:11:48;30.20;48.10
62575;DHT22;70119;45.638;11.714;2023-08-06T02:14:14;30.20;48.10
62575;DHT22;70119;45.638;11.714;2023-08-06T02:16:40;30.20;48.10
62575;DHT22;70119;45.638;11.714;2023-08-06T02:19:06;30.20;48.10
62575;DHT22;70119;45.638;11.714;2023-08-06T02:21:31;30.20;48.10
62575;DHT22;70119;45.638;11.714;2023-08-06T02:23:58;30.20;48.10
62575;DHT22;70119;45.638;11.714;2023-08-06T02:26:24;30.20;48.20
62575;DHT22;70119;45.638;11.714;2023-08-06T02:28:50;30.20;48.20
62575;DHT22;70119;45.638;11.714;2023-08-06T02:31:15;30.10;48.20
62575;DHT22;70119;45.638;11.714;2023-08-06T02:33:41;30.10;48.20
62575;DHT22;70119;45.638;11.714;2023-08-06T02:36:07;30.20;48.20
62575;DHT22;70119;45.638;11.714;2023-08-06T02:38:33;30.20;48.20
62575;DHT22;70119;45.638;11.714;2023-08-06T02:41:01;30.10;48.20
62575;DHT22;70119;45.638;11.714;2023-08-06T02:43:27;30.10;48.20
62575;DHT22;70119;45.638;11.714;2023-08-06T02:45:57;30.10;48.20
62575;DHT22;70119;45.638;11.714;2023-08-06T02:48:23;30.10;48.30
62575;DHT22;70119;45.638;11.714;2023-08-06T02:50:49;30.10;48.40
62575;DHT22;70119;45.638;11.714;2023-08-06T02:53:15;30.10;48.40
62575;DHT22;70119;45.638;11.714;2023-08-06T02:55:46;30.10;48.40
62575;DHT22;70119;45.638;11.714;2023-08-06T02:58:13;30.10;48.30
62575;DHT22;70119;45.638;11.714;2023-08-06T03:00:39;30.10;48.30
62575;DHT22;70119;45.638;11.714;2023-08-06T03:03:05;30.10;48.30
62575;DHT22;70119;45.638;11.714;2023-08-06T03:05:31;30.10;48.20
62575;DHT22;70119;45.638;11.714;2023-08-06T03:07:57;30.10;48.20
62575;DHT22;70119;45.638;11.714;2023-08-06T03:10:22;30.10;48.20
62575;DHT22;70119;45.638;11.714;2023-08-06T03:12:48;30.10;48.20
62575;DHT22;70119;45.638;11.714;2023-08-06T03:15:14;30.10;48.20
62575;DHT22;70119;45.638;11.714;2023-08-06T03:17:40;30.10;48.30
62575;DHT22;70119;45.638;11.714;2023-08-06T03:20:06;30.10;48.20
62575;DHT22;70119;45.638;11.714;2023-08-06T03:22:32;30.10;48.20
62575;DHT22;70119;45.638;11.714;2023-08-06T03:24:58;30.10;48.20
62575;DHT22;70119;45.638;11.714;2023-08-06T03:27:24;30.10;48.20
62575;DHT22;70119;45.638;11.714;2023-08-06T03:29:50;30.10;48.20
62575;DHT22;70119;45.638;11.714;2023-08-06T03:32:16;30.10;48.20
62575;DHT22;70119;45.638;11.714;2023-08-06T03:34:42;30.10;48.20
62575;DHT22;70119;45.638;11.714;2023-08-06T03:37:08;30.10;48.20
62575;DHT22;70119;45.638;11.714;2023-08-06T03:39:34;30.10;48.20
62575;DHT22;70119;45.638;11.714;2023-08-06T03:42:00;30.10;48.20
62575;DHT22;70119;45.638;11.714;2023-08-06T03:44:25;30.10;48.20
62575;DHT22;70119;45.638;11.714;2023-08-06T03:46:52;30.10;48.20
62575;DHT22;70119;45.638;11.714;2023-08-06T03:49:18;30.10;48.20
62575;DHT22;70119;45.638;11.714;2023-08-06T03:51:44;30.10;48.20
62575;DHT22;70119;45.638;11.714;2023-08-06T03:54:10;30.10;48.20
62575;DHT22;70119;45.638;11.714;2023-08-06T03:56:36;30.10;48.20
62575;DHT22;70119;45.638;11.714;2023-08-06T03:59:01;30.10;48.20
62575;DHT22;70119;45.638;11.714;2023-08-06T04:01:27;30.10;48.20
62575;DHT22;70119;45.638;11.714;2023-08-06T04:03:53;30.10;48.20
62575;DHT22;70119;45.638;11.714;2023-08-06T04:06:19;30.10;48.20
62575;DHT22;70119;45.638;11.714;2023-08-06T04:08:45;30.10;48.20
62575;DHT22;70119;45.638;11.714;2023-08-06T04:11:11;30.10;48.20
62575;DHT22;70119;45.638;11.714;2023-08-06T04:13:38;30.10;48.20
62575;DHT22;70119;45.638;11.714;2023-08-06T04:16:07;30.10;48.20
62575;DHT22;70119;45.638;11.714;2023-08-06T04:18:33;30.10;48.20
62575;DHT22;70119;45.638;11.714;2023-08-06T04:20:59;30.10;48.20
62575;DHT22;70119;45.638;11.714;2023-08-06T04:23:25;30.10;48.20
62575;DHT22;70119;45.638;11.714;2023-08-06T04:25:50;30.10;48.20
62575;DHT22;70119;45.638;11.714;2023-08-06T04:28:16;30.10;48.20
62575;DHT22;70119;45.638;11.714;2023-08-06T04:30:42;30.10;48.20
62575;DHT22;70119;45.638;11.714;2023-08-06T04:33:08;30.10;48.20
62575;DHT22;70119;45.638;11.714;2023-08-06T04:35:35;30.10;48.20
62575;DHT22;70119;45.638;11.714;2023-08-06T04:38:00;30.10;48.20
62575;DHT22;70119;45.638;11.714;2023-08-06T04:40:26;30.10;48.20
62575;DHT22;70119;45.638;11.714;2023-08-06T04:42:52;30.10;48.20
62575;DHT22;70119;45.638;11.714;2023-08-06T04:45:18;30.10;48.20
62575;DHT22;70119;45.638;11.714;2023-08-06T04:47:44;30.10;48.20
62575;DHT22;70119;45.638;11.714;2023-08-06T04:50:11;30.10;48.20
62575;DHT22;70119;45.638;11.714;2023-08-06T04:52:38;30.10;48.20
62575;DHT22;70119;45.638;11.714;2023-08-06T04:55:04;30.10;48.20
62575;DHT22;70119;45.638;11.714;2023-08-06T04:57:31;30.10;48.20
62575;DHT22;70119;45.638;11.714;2023-08-06T04:59:57;30.10;48.20
62575;DHT22;70119;45.638;11.714;2023-08-06T05:02:25;30.10;48.20
62575;DHT22;70119;45.638;11.714;2023-08-06T05:04:51;30.10;48.20
62575;DHT22;70119;45.638;11.714;2023-08-06T05:07:18;30.10;48.20
62575;DHT22;70119;45.638;11.714;2023-08-06T05:09:44;30.10;48.20
62575;DHT22;70119;45.638;11.714;2023-08-06T05:12:10;30.10;48.10
62575;DHT22;70119;45.638;11.714;2023-08-06T05:14:38;30.10;48.10
62575;DHT22;70119;45.638;11.714;2023-08-06T05:17:06;30.10;48.10
62575;DHT22;70119;45.638;11.714;2023-08-06T05:19:32;30.10;48.10
62575;DHT22;70119;45.638;11.714;2023-08-06T05:21:57;30.10;48.00
62575;DHT22;70119;45.638;11.714;2023-08-06T05:24:23;30.10;48.00
62575;DHT22;70119;45.638;11.714;2023-08-06T05:26:49;30.20;48.00
62575;DHT22;70119;45.638;11.714;2023-08-06T05:29:16;30.20;48.00
62575;DHT22;70119;45.638;11.714;2023-08-06T05:31:42;30.20;48.00
62575;DHT22;70119;45.638;11.714;2023-08-06T05:34:08;30.20;48.00
62575;DHT22;70119;45.638;11.714;2023-08-06T05:36:34;30.20;47.90
62575;DHT22;70119;45.638;11.714;2023-08-06T05:39:00;30.20;47.90
62575;DHT22;70119;45.638;11.714;2023-08-06T05:41:26;30.20;47.90
62575;DHT22;70119;45.638;11.714;2023-08-06T05:43:52;30.20;47.90
62575;DHT22;70119;45.638;11.714;2023-08-06T05:46:18;30.30;47.90
62575;DHT22;70119;45.638;11.714;2023-08-06T05:48:43;30.30;47.90
62575;DHT22;70119;45.638;11.714;2023-08-06T05:51:09;30.30;47.90
62575;DHT22;70119;45.638;11.714;2023-08-06T05:53:38;30.30;47.80
62575;DHT22;70119;45.638;11.714;2023-08-06T05:56:04;30.30;47.80
62575;DHT22;70119;45.638;11.714;2023-08-06T05:58:29;30.30;47.80
62575;DHT22;70119;45.638;11.714;2023-08-06T06:00:56;30.30;47.80
62575;DHT22;70119;45.638;11.714;2023-08-06T06:03:22;30.30;47.70
62575;DHT22;70119;45.638;11.714;2023-08-06T06:05:48;30.30;47.70
62575;DHT22;70119;45.638;11.714;2023-08-06T06:08:14;30.30;47.70
62575;DHT22;70119;45.638;11.714;2023-08-06T06:10:40;30.30;47.70
62575;DHT22;70119;45.638;11.714;2023-08-06T06:13:05;30.30;47.70
62575;DHT22;70119;45.638;11.714;2023-08-06T06:15:31;30.40;47.60
62575;DHT22;70119;45.638;11.714;2023-08-06T06:17:57;30.40;47.60
62575;DHT22;70119;45.638;11.714;2023-08-06T06:20:23;30.40;47.60
62575;DHT22;70119;45.638;11.714;2023-08-06T06:22:49;30.40;47.60
62575;DHT22;70119;45.638;11.714;2023-08-06T06:25:15;30.40;47.50
62575;DHT22;70119;45.638;11.714;2023-08-06T06:27:41;30.40;47.50
62575;DHT22;70119;45.638;11.714;2023-08-06T06:30:07;30.40;47.50
62575;DHT22;70119;45.638;11.714;2023-08-06T06:32:33;30.40;47.50
62575;DHT22;70119;45.638;11.714;2023-08-06T06:35:00;30.50;47.50
62575;DHT22;70119;45.638;11.714;2023-08-06T06:37:26;30.50;47.60
62575;DHT22;70119;45.638;11.714;2023-08-06T06:39:51;30.50;47.60
62575;DHT22;70119;45.638;11.714;2023-08-06T06:42:17;30.50;47.60
62575;DHT22;70119;45.638;11.714;2023-08-06T06:44:43;30.50;47.60
62575;DHT22;70119;45.638;11.714;2023-08-06T06:47:09;30.50;47.70
62575;DHT22;70119;45.638;11.714;2023-08-06T06:49:35;30.50;47.80
62575;DHT22;70119;45.638;11.714;2023-08-06T06:52:01;30.50;47.80
62575;DHT22;70119;45.638;11.714;2023-08-06T06:54:26;30.50;47.80
62575;DHT22;70119;45.638;11.714;2023-08-06T06:56:52;30.50;47.70
62575;DHT22;70119;45.638;11.714;2023-08-06T06:59:20;30.50;47.70
62575;DHT22;70119;45.638;11.714;2023-08-06T07:01:55;30.50;47.70
62575;DHT22;70119;45.638;11.714;2023-08-06T07:04:27;30.50;47.70
62575;DHT22;70119;45.638;11.714;2023-08-06T07:06:53;30.50;47.70
62575;DHT22;70119;45.638;11.714;2023-08-06T07:09:20;30.60;47.70
62575;DHT22;70119;45.638;11.714;2023-08-06T07:11:46;30.60;47.70
62575;DHT22;70119;45.638;11.714;2023-08-06T07:14:11;30.60;47.70
62575;DHT22;70119;45.638;11.714;2023-08-06T07:16:37;30.60;47.70
62575;DHT22;70119;45.638;11.714;2023-08-06T07:19:03;30.60;47.70
62575;DHT22;70119;45.638;11.714;2023-08-06T07:21:31;30.60;47.70
62575;DHT22;70119;45.638;11.714;2023-08-06T07:23:59;30.60;47.70
62575;DHT22;70119;45.638;11.714;2023-08-06T07:26:26;30.60;47.70
62575;DHT22;70119;45.638;11.714;2023-08-06T07:28:53;30.60;47.70
62575;DHT22;70119;45.638;11.714;2023-08-06T07:31:19;30.60;47.70
62575;DHT22;70119;45.638;11.714;2023-08-06T07:33:45;30.60;47.60
62575;DHT22;70119;45.638;11.714;2023-08-06T07:36:13;30.60;47.70
62575;DHT22;70119;45.638;11.714;2023-08-06T07:38:40;30.60;47.60
62575;DHT22;70119;45.638;11.714;2023-08-06T07:41:06;30.60;47.70
62575;DHT22;70119;45.638;11.714;2023-08-06T07:43:33;30.60;47.70
62575;DHT22;70119;45.638;11.714;2023-08-06T07:46:01;30.70;47.60
62575;DHT22;70119;45.638;11.714;2023-08-06T07:48:28;30.70;47.60
62575;DHT22;70119;45.638;11.714;2023-08-06T07:50:54;30.70;47.60
62575;DHT22;70119;45.638;11.714;2023-08-06T07:53:21;30.70;47.70
62575;DHT22;70119;45.638;11.714;2023-08-06T07:55:51;30.70;47.60
62575;DHT22;70119;45.638;11.714;2023-08-06T07:58:18;30.80;47.60
62575;DHT22;70119;45.638;11.714;2023-08-06T08:00:44;30.80;47.50
62575;DHT22;70119;45.638;11.714;2023-08-06T08:03:14;30.80;47.50
62575;DHT22;70119;45.638;11.714;2023-08-06T08:05:41;30.80;47.50
62575;DHT22;70119;45.638;11.714;2023-08-06T08:08:07;30.80;47.40
62575;DHT22;70119;45.638;11.714;2023-08-06T08:10:33;30.90;47.40
62575;DHT22;70119;45.638;11.714;2023-08-06T08:13:01;30.90;47.40
62575;DHT22;70119;45.638;11.714;2023-08-06T08:15:28;30.90;47.40
62575;DHT22;70119;45.638;11.714;2023-08-06T08:17:55;30.90;47.30
62575;DHT22;70119;45.638;11.714;2023-08-06T08:20:21;30.90;47.30
62575;DHT22;70119;45.638;11.714;2023-08-06T08:22:47;30.90;47.30
62575;DHT22;70119;45.638;11.714;2023-08-06T08:25:13;30.90;47.30
62575;DHT22;70119;45.638;11.714;2023-08-06T08:27:39;30.90;47.30
62575;DHT22;70119;45.638;11.714;2023-08-06T08:30:07;31.00;47.30
62575;DHT22;70119;45.638;11.714;2023-08-06T08:32:34;30.90;47.20
62575;DHT22;70119;45.638;11.714;2023-08-06T08:35:00;30.90;47.20
62575;DHT22;70119;45.638;11.714;2023-08-06T08:37:25;31.00;47.20
62575;DHT22;70119;45.638;11.714;2023-08-06T08:39:51;31.00;47.20
62575;DHT22;70119;45.638;11.714;2023-08-06T08:42:18;31.00;47.20
62575;DHT22;70119;45.638;11.714;2023-08-06T08:44:45;31.00;47.20
62575;DHT22;70119;45.638;11.714;2023-08-06T08:47:11;31.00;47.20
62575;DHT22;70119;45.638;11.714;2023-08-06T08:49:38;31.00;47.20
62575;DHT22;70119;45.638;11.714;2023-08-06T08:52:06;31.00;47.20
62575;DHT22;70119;45.638;11.714;2023-08-06T08:54:38;31.00;47.20
62575;DHT22;70119;45.638;11.714;2023-08-06T08:57:05;31.00;47.20
62575;DHT22;70119;45.638;11.714;2023-08-06T08:59:33;31.00;47.10
62575;DHT22;70119;45.638;11.714;2023-08-06T09:02:00;31.00;47.10
62575;DHT22;70119;45.638;11.714;2023-08-06T09:04:29;31.00;47.10
62575;DHT22;70119;45.638;11.714;2023-08-06T09:07:00;31.00;47.20
62575;DHT22;70119;45.638;11.714;2023-08-06T09:09:35;31.00;47.20
62575;DHT22;70119;45.638;11.714;2023-08-06T09:12:14;31.00;47.00
62575;DHT22;70119;45.638;11.714;2023-08-06T09:14:43;31.00;46.70
62575;DHT22;70119;45.638;11.714;2023-08-06T09:17:11;31.00;46.60
62575;DHT22;70119;45.638;11.714;2023-08-06T09:19:41;31.00;46.40
62575;DHT22;70119;45.638;11.714;2023-08-06T09:22:12;30.90;46.30
62575;DHT22;70119;45.638;11.714;2023-08-06T09:24:41;30.90;46.10
62575;DHT22;70119;45.638;11.714;2023-08-06T09:27:13;30.80;46.00
62575;DHT22;70119;45.638;11.714;2023-08-06T09:29:46;30.80;45.90
62575;DHT22;70119;45.638;11.714;2023-08-06T09:32:14;30.80;45.80
62575;DHT22;70119;45.638;11.714;2023-08-06T09:34:56;30.80;45.80
62575;DHT22;70119;45.638;11.714;2023-08-06T09:37:47;30.80;45.70
62575;DHT22;70119;45.638;11.714;2023-08-06T09:42:52;30.70;45.50
62575;DHT22;70119;45.638;11.714;2023-08-06T09:45:18;30.70;45.60
62575;DHT22;70119;45.638;11.714;2023-08-06T09:47:44;30.70;45.40
62575;DHT22;70119;45.638;11.714;2023-08-06T09:50:20;30.70;45.30
62575;DHT22;70119;45.638;11.714;2023-08-06T09:52:48;30.70;45.30
62575;DHT22;70119;45.638;11.714;2023-08-06T09:55:14;30.60;45.30
62575;DHT22;70119;45.638;11.714;2023-08-06T09:57:41;30.60;45.20
62575;DHT22;70119;45.638;11.714;2023-08-06T10:00:11;30.60;45.20
62575;DHT22;70119;45.638;11.714;2023-08-06T10:02:41;30.60;45.10
62575;DHT22;70119;45.638;11.714;2023-08-06T10:05:08;30.60;45.10
62575;DHT22;70119;45.638;11.714;2023-08-06T10:07:35;30.60;45.10
62575;DHT22;70119;45.638;11.714;2023-08-06T10:10:01;30.60;45.10
62575;DHT22;70119;45.638;11.714;2023-08-06T10:12:32;30.60;45.10
62575;DHT22;70119;45.638;11.714;2023-08-06T10:15:01;30.60;45.10
62575;DHT22;70119;45.638;11.714;2023-08-06T10:17:28;30.60;45.10
62575;DHT22;70119;45.638;11.714;2023-08-06T10:19:58;30.60;45.00
62575;DHT22;70119;45.638;11.714;2023-08-06T10:22:24;30.60;45.00
62575;DHT22;70119;45.638;11.714;2023-08-06T10:24:53;30.60;45.00
62575;DHT22;70119;45.638;11.714;2023-08-06T10:27:28;30.60;45.00
62575;DHT22;70119;45.638;11.714;2023-08-06T10:29:54;30.60;44.90
62575;DHT22;70119;45.638;11.714;2023-08-06T10:32:20;30.60;44.90
62575;DHT22;70119;45.638;11.714;2023-08-06T10:35:09;30.60;44.80
62575;DHT22;70119;45.638;11.714;2023-08-06T10:37:53;30.50;44.80
62575;DHT22;70119;45.638;11.714;2023-08-06T10:40:21;30.60;44.80
62575;DHT22;70119;45.638;11.714;2023-08-06T10:42:47;30.50;44.70
62575;DHT22;70119;45.638;11.714;2023-08-06T10:45:17;30.50;44.60
62575;DHT22;70119;45.638;11.714;2023-08-06T10:47:45;30.60;44.60
62575;DHT22;70119;45.638;11.714;2023-08-06T10:50:15;30.50;44.60
62575;DHT22;70119;45.638;11.714;2023-08-06T10:52:45;30.50;44.60
62575;DHT22;70119;45.638;11.714;2023-08-06T10:55:12;30.50;44.60
62575;DHT22;70119;45.638;11.714;2023-08-06T10:57:38;30.50;44.50
62575;DHT22;70119;45.638;11.714;2023-08-06T11:00:06;30.50;44.40
62575;DHT22;70119;45.638;11.714;2023-08-06T11:02:34;30.50;44.40
62575;DHT22;70119;45.638;11.714;2023-08-06T11:05:08;30.50;44.40
62575;DHT22;70119;45.638;11.714;2023-08-06T11:07:35;30.50;44.40
62575;DHT22;70119;45.638;11.714;2023-08-06T11:10:02;30.50;44.30
62575;DHT22;70119;45.638;11.714;2023-08-06T11:12:29;30.50;44.30
62575;DHT22;70119;45.638;11.714;2023-08-06T11:14:55;30.50;44.30
62575;DHT22;70119;45.638;11.714;2023-08-06T11:17:21;30.40;44.30
62575;DHT22;70119;45.638;11.714;2023-08-06T11:19:47;30.50;44.20
62575;DHT22;70119;45.638;11.714;2023-08-06T11:22:14;30.50;44.20
62575;DHT22;70119;45.638;11.714;2023-08-06T11:24:40;30.50;44.20
62575;DHT22;70119;45.638;11.714;2023-08-06T11:27:16;30.50;44.10
62575;DHT22;70119;45.638;11.714;2023-08-06T11:29:43;30.50;44.10
62575;DHT22;70119;45.638;11.714;2023-08-06T11:32:09;30.50;44.10
62575;DHT22;70119;45.638;11.714;2023-08-06T11:34:37;30.40;44.10
62575;DHT22;70119;45.638;11.714;2023-08-06T11:37:03;30.50;44.10
62575;DHT22;70119;45.638;11.714;2023-08-06T11:39:36;30.50;44.10
62575;DHT22;70119;45.638;11.714;2023-08-06T11:42:04;30.50;44.00
62575;DHT22;70119;45.638;11.714;2023-08-06T11:44:31;30.40;44.00
62575;DHT22;70119;45.638;11.714;2023-08-06T11:46:59;30.50;44.00
62575;DHT22;70119;45.638;11.714;2023-08-06T11:49:47;30.40;44.00
62575;DHT22;70119;45.638;11.714;2023-08-06T11:52:23;30.50;44.00
62575;DHT22;70119;45.638;11.714;2023-08-06T11:55:07;30.40;44.00
62575;DHT22;70119;45.638;11.714;2023-08-06T11:57:36;30.50;44.00
62575;DHT22;70119;45.638;11.714;2023-08-06T12:00:04;30.40;44.00
62575;DHT22;70119;45.638;11.714;2023-08-06T12:02:32;30.50;44.10
62575;DHT22;70119;45.638;11.714;2023-08-06T12:05:12;30.40;44.00
62575;DHT22;70119;45.638;11.714;2023-08-06T12:07:43;30.40;44.00
62575;DHT22;70119;45.638;11.714;2023-08-06T12:10:10;30.40;44.00
62575;DHT22;70119;45.638;11.714;2023-08-06T12:12:36;30.40;44.00
62575;DHT22;70119;45.638;11.714;2023-08-06T12:15:03;30.40;44.00
62575;DHT22;70119;45.638;11.714;2023-08-06T12:17:29;30.40;44.10
62575;DHT22;70119;45.638;11.714;2023-08-06T12:19:55;30.40;44.10
62575;DHT22;70119;45.638;11.714;2023-08-06T12:22:21;30.40;44.00
62575;DHT22;70119;45.638;11.714;2023-08-06T12:24:47;30.40;44.00
62575;DHT22;70119;45.638;11.714;2023-08-06T12:27:13;30.40;44.00
62575;DHT22;70119;45.638;11.714;2023-08-06T12:29:47;30.40;44.10
62575;DHT22;70119;45.638;11.714;2023-08-06T12:32:14;30.40;44.00
62575;DHT22;70119;45.638;11.714;2023-08-06T12:34:41;30.40;44.10
62575;DHT22;70119;45.638;11.714;2023-08-06T12:37:08;30.50;44.30
62575;DHT22;70119;45.638;11.714;2023-08-06T12:39:35;30.40;44.40
62575;DHT22;70119;45.638;11.714;2023-08-06T12:42:03;30.50;44.40
62575;DHT22;70119;45.638;11.714;2023-08-06T12:44:30;30.50;44.40
62575;DHT22;70119;45.638;11.714;2023-08-06T12:46:57;30.50;44.40
62575;DHT22;70119;45.638;11.714;2023-08-06T12:49:24;30.50;44.50
62575;DHT22;70119;45.638;11.714;2023-08-06T12:51:53;30.50;44.50
62575;DHT22;70119;45.638;11.714;2023-08-06T12:54:23;30.50;44.50
62575;DHT22;70119;45.638;11.714;2023-08-06T12:56:49;30.60;44.60
62575;DHT22;70119;45.638;11.714;2023-08-06T12:59:16;30.60;44.70
62575;DHT22;70119;45.638;11.714;2023-08-06T13:01:43;30.60;44.70
62575;DHT22;70119;45.638;11.714;2023-08-06T13:04:09;30.60;44.80
62575;DHT22;70119;45.638;11.714;2023-08-06T13:06:35;30.60;44.90
62575;DHT22;70119;45.638;11.714;2023-08-06T13:09:08;30.60;44.90
62575;DHT22;70119;45.638;11.714;2023-08-06T13:11:35;30.60;44.90
62575;DHT22;70119;45.638;11.714;2023-08-06T13:14:09;30.60;44.90
62575;DHT22;70119;45.638;11.714;2023-08-06T13:16:37;30.60;44.90
62575;DHT22;70119;45.638;11.714;2023-08-06T13:19:04;30.60;44.90
62575;DHT22;70119;45.638;11.714;2023-08-06T13:24:17;30.60;45.00
62575;DHT22;70119;45.638;11.714;2023-08-06T13:26:43;30.60;45.00
62575;DHT22;70119;45.638;11.714;2023-08-06T13:29:09;30.60;45.10
62575;DHT22;70119;45.638;11.714;2023-08-06T13:31:37;30.60;45.10
62575;DHT22;70119;45.638;11.714;2023-08-06T13:34:04;30.60;45.10
62575;DHT22;70119;45.638;11.714;2023-08-06T13:36:30;30.60;45.20
62575;DHT22;70119;45.638;11.714;2023-08-06T13:38:57;30.70;45.10
62575;DHT22;70119;45.638;11.714;2023-08-06T13:41:23;30.70;45.20
62575;DHT22;70119;45.638;11.714;2023-08-06T13:43:49;30.70;45.20
62575;DHT22;70119;45.638;11.714;2023-08-06T13:46:15;30.70;45.20
62575;DHT22;70119;45.638;11.714;2023-08-06T13:48:48;30.70;45.30
62575;DHT22;70119;45.638;11.714;2023-08-06T13:51:16;30.70;45.20
62575;DHT22;70119;45.638;11.714;2023-08-06T13:53:42;30.70;45.30
62575;DHT22;70119;45.638;11.714;2023-08-06T13:56:14;30.70;45.30
62575;DHT22;70119;45.638;11.714;2023-08-06T13:58:43;30.70;45.30
62575;DHT22;70119;45.638;11.714;2023-08-06T14:01:13;30.70;45.30
62575;DHT22;70119;45.638;11.714;2023-08-06T14:03:43;30.70;45.30
62575;DHT22;70119;45.638;11.714;2023-08-06T14:06:16;30.70;45.30
62575;DHT22;70119;45.638;11.714;2023-08-06T14:08:50;30.70;45.30
62575;DHT22;70119;45.638;11.714;2023-08-06T14:11:20;30.70;45.30
62575;DHT22;70119;45.638;11.714;2023-08-06T14:13:47;30.70;45.40
62575;DHT22;70119;45.638;11.714;2023-08-06T14:16:12;30.80;45.30
62575;DHT22;70119;45.638;11.714;2023-08-06T14:18:38;30.80;45.30
62575;DHT22;70119;45.638;11.714;2023-08-06T14:21:13;30.80;45.40
62575;DHT22;70119;45.638;11.714;2023-08-06T14:23:40;30.80;45.40
62575;DHT22;70119;45.638;11.714;2023-08-06T14:26:08;30.80;45.40
62575;DHT22;70119;45.638;11.714;2023-08-06T14:28:37;30.80;45.40
62575;DHT22;70119;45.638;11.714;2023-08-06T14:31:04;30.80;45.40
62575;DHT22;70119;45.638;11.714;2023-08-06T14:33:30;30.80;45.40
62575;DHT22;70119;45.638;11.714;2023-08-06T14:35:56;30.80;45.40
62575;DHT22;70119;45.638;11.714;2023-08-06T14:38:22;30.80;45.40
62575;DHT22;70119;45.638;11.714;2023-08-06T14:40:48;30.80;45.50
62575;DHT22;70119;45.638;11.714;2023-08-06T14:43:14;30.80;45.50
62575;DHT22;70119;45.638;11.714;2023-08-06T14:45:40;30.80;45.50
62575;DHT22;70119;45.638;11.714;2023-08-06T14:48:06;30.90;45.50
62575;DHT22;70119;45.638;11.714;2023-08-06T14:50:32;30.90;45.50
62575;DHT22;70119;45.638;11.714;2023-08-06T14:52:58;30.90;45.50
62575;DHT22;70119;45.638;11.714;2023-08-06T14:55:28;30.90;45.50
62575;DHT22;70119;45.638;11.714;2023-08-06T14:57:54;30.90;45.60
62575;DHT22;70119;45.638;11.714;2023-08-06T15:00:20;30.90;45.60
62575;DHT22;70119;45.638;11.714;2023-08-06T15:02:46;30.90;45.60
62575;DHT22;70119;45.638;11.714;2023-08-06T15:05:12;30.90;45.60
62575;DHT22;70119;45.638;11.714;2023-08-06T15:07:38;30.90;45.60
62575;DHT22;70119;45.638;11.714;2023-08-06T15:10:05;30.90;45.60
62575;DHT22;70119;45.638;11.714;2023-08-06T15:12:31;30.90;45.70
62575;DHT22;70119;45.638;11.714;2023-08-06T15:15:00;30.80;45.70
62575;DHT22;70119;45.638;11.714;2023-08-06T15:17:27;30.80;45.80
62575;DHT22;70119;45.638;11.714;2023-08-06T15:19:56;30.80;45.80
62575;DHT22;70119;45.638;11.714;2023-08-06T15:22:26;30.80;45.80
62575;DHT22;70119;45.638;11.714;2023-08-06T15:24:53;30.80;45.90
62575;DHT22;70119;45.638;11.714;2023-08-06T15:27:21;30.80;45.80